Time;durP1;ratioP1;P1;durP2;ratioP2;P2;SDS_P1;SDS_P2;PMS_P1;PMS_P2;Temp;Humidity;BMP_temperature;BMP_pressure;BME280_temperature;BME280_humidity;BME280_pressure;Samples;Min_cycle;Max_cycle;Signal;HPM_P1;HPM_P2
2021/12/26 00:00:10;;;;;;;;;21.00;18.00;;;;;10.98;78.03;99778.88;5081020;27;45480;-62
2021/12/26 00:02:35;;;;;;;;;21.75;21.50;;;;;10.95;78.16;99771.97;5086354;27;45532;-59
2021/12/26 00:05:02;;;;;;;;;28.00;21.00;;;;;10.92;78.54;99767.69;5089476;27;46116;-65
2021/12/26 00:07:27;;;;;;;;;26.25;22.50;;;;;10.91;78.00;99771.31;5079523;27;45475;-61
2021/12/26 00:09:53;;;;;;;;;23.50;22.00;;;;;10.96;78.33;99773.66;5091228;27;45397;-62
2021/12/26 00:12:18;;;;;;;;;21.25;20.50;;;;;10.97;78.47;99770.03;5077284;27;45463;-60
2021/12/26 00:14:43;;;;;;;;;31.75;24.25;;;;;10.92;78.30;99767.69;5084114;27;46263;-62
2021/12/26 00:17:09;;;;;;;;;20.25;18.00;;;;;10.99;77.87;99772.59;5075465;28;45421;-61
2021/12/26 00:19:34;;;;;;;;;23.25;22.75;;;;;11.00;78.27;99764.50;5075448;28;45341;-61
2021/12/26 00:22:00;;;;;;;;;54.50;43.75;;;;;11.01;78.61;99763.53;5063154;27;45565;-61
2021/12/26 00:24:25;;;;;;;;;25.50;24.00;;;;;10.99;78.13;99757.47;5086617;27;45325;-61
2021/12/26 00:26:51;;;;;;;;;28.00;23.00;;;;;10.93;77.96;99753.41;5076058;27;45450;-57
2021/12/26 00:29:16;;;;;;;;;27.50;22.50;;;;;10.98;78.27;99755.78;5075585;27;45989;-59
2021/12/26 00:31:42;;;;;;;;;23.75;22.25;;;;;10.95;78.75;99755.16;5061992;27;45454;-59
2021/12/26 00:34:08;;;;;;;;;30.75;23.50;;;;;10.93;78.62;99753.41;5077292;27;46225;-57
2021/12/26 00:36:33;;;;;;;;;25.00;21.50;;;;;10.95;78.52;99756.00;5077485;27;45478;-61
2021/12/26 00:38:59;;;;;;;;;23.25;22.25;;;;;10.94;78.59;99754.31;5078230;27;45463;-59
2021/12/26 00:41:26;;;;;;;;;19.00;16.00;;;;;10.91;77.84;99744.69;5078311;27;45556;-61
2021/12/26 00:43:54;;;;;;;;;23.75;21.00;;;;;10.89;78.61;99745.78;5079268;27;46132;-59
2021/12/26 00:46:21;;;;;;;;;23.50;20.50;;;;;10.88;78.80;99738.75;5058148;28;45495;-60
2021/12/26 00:48:50;;;;;;;;;18.00;17.75;;;;;10.89;78.37;99733.31;5073409;27;45863;-60
2021/12/26 00:51:17;;;;;;;;;24.50;21.75;;;;;10.84;78.51;99742.59;5078242;27;45673;-58
2021/12/26 00:53:43;;;;;;;;;22.00;18.75;;;;;10.89;78.26;99740.47;5061938;27;46852;-58
2021/12/26 00:56:10;;;;;;;;;29.25;21.75;;;;;10.87;78.31;99745.03;5077317;27;45401;-58
2021/12/26 00:58:36;;;;;;;;;25.25;21.50;;;;;10.90;78.66;99747.47;5077826;27;45489;-62
2021/12/26 01:01:02;;;;;;;;;34.00;26.50;;;;;10.90;78.85;99747.47;5075417;27;45556;-60
2021/12/26 01:03:27;;;;;;;;;28.75;23.75;;;;;10.93;78.27;99755.22;5075320;28;46606;-59
2021/12/26 01:05:55;;;;;;;;;28.00;26.00;;;;;10.91;78.44;99754.50;5075183;28;45472;-59
2021/12/26 01:08:26;;;;;;;;;36.75;28.75;;;;;10.91;79.22;99754.50;5057287;28;45378;-59
2021/12/26 01:11:06;;;;;;;;;31.25;25.50;;;;;10.87;78.59;99753.03;5075772;28;45228;-59
2021/12/26 01:13:37;;;;;;;;;28.00;24.50;;;;;10.87;78.21;99748.53;5072711;28;45514;-59
2021/12/26 01:16:07;;;;;;;;;26.50;22.00;;;;;10.89;78.94;99746.63;5075169;28;45289;-58
2021/12/26 01:18:37;;;;;;;;;33.50;25.75;;;;;10.92;78.26;99750.88;5077516;28;45456;-60
2021/12/26 01:21:17;;;;;;;;;26.75;24.75;;;;;10.93;77.89;99741.94;5059088;28;45596;-59
2021/12/26 01:23:46;;;;;;;;;33.00;27.50;;;;;10.89;78.46;99751.94;5079757;27;45422;-60
2021/12/26 01:26:12;;;;;;;;;27.25;22.25;;;;;10.93;78.56;99753.41;5078474;28;45410;-61
2021/12/26 01:28:37;;;;;;;;;26.25;22.25;;;;;10.88;79.03;99747.59;5078559;28;45416;-60
2021/12/26 01:31:03;;;;;;;;;27.25;22.00;;;;;10.92;78.57;99756.19;5079512;28;45239;-59
2021/12/26 01:33:29;;;;;;;;;27.00;25.75;;;;;10.91;78.33;99755.34;5079001;28;45319;-59
2021/12/26 01:35:55;;;;;;;;;32.50;27.75;;;;;10.87;78.83;99742.38;5078439;28;45545;-63
2021/12/26 01:38:21;;;;;;;;;29.75;25.25;;;;;10.95;78.72;99740.03;5078618;28;45429;-60
2021/12/26 01:40:51;;;;;;;;;31.25;27.50;;;;;10.95;78.93;99742.69;5078376;28;45549;-62
2021/12/26 01:43:19;;;;;;;;;29.25;24.25;;;;;10.90;78.13;99731.50;5076672;28;46356;-61
2021/12/26 01:45:45;;;;;;;;;30.25;24.50;;;;;10.93;78.50;99741.94;5078055;28;45516;-60
2021/12/26 01:48:12;;;;;;;;;27.75;25.75;;;;;10.93;78.25;99741.94;5051669;28;45556;-61
2021/12/26 01:50:38;;;;;;;;;26.00;25.50;;;;;10.89;78.88;99735.97;5075975;28;45311;-62
2021/12/26 01:53:05;;;;;;;;;21.75;21.75;;;;;10.84;79.04;99738.13;5078665;28;45326;-59
2021/12/26 01:55:43;;;;;;;;;25.25;23.00;;;;;10.87;78.75;99737.06;5043515;28;45214;-64
2021/12/26 01:58:17;;;;;;;;;22.00;18.50;;;;;10.85;78.46;99744.31;5077214;28;45476;-62
2021/12/26 02:00:45;;;;;;;;;21.75;21.75;;;;;10.88;78.34;99738.75;5076816;28;45340;-61
2021/12/26 02:03:11;;;;;;;;;24.00;22.00;;;;;10.83;78.52;99748.88;5076653;28;46252;-60
2021/12/26 02:05:37;;;;;;;;;22.00;21.00;;;;;10.79;78.69;99739.41;5068486;28;45461;-58
2021/12/26 02:08:03;;;;;;;;;28.50;24.50;;;;;10.77;78.95;99742.16;5058198;28;45426;-59
2021/12/26 02:10:28;;;;;;;;;24.00;23.00;;;;;10.76;78.95;99739.63;5059772;28;45586;-62
2021/12/26 02:12:53;;;;;;;;;28.00;23.00;;;;;10.74;79.23;99741.53;5078065;28;45727;-60
2021/12/26 02:15:19;;;;;;;;;29.00;23.25;;;;;10.75;79.25;99737.94;5059980;28;45425;-60
2021/12/26 02:17:44;;;;;;;;;26.50;21.25;;;;;10.80;78.50;99743.75;5078001;28;45506;-59
2021/12/26 02:20:16;;;;;;;;;26.50;25.00;;;;;10.80;78.89;99747.25;5059704;28;45463;-61
2021/12/26 02:22:46;;;;;;;;;23.75;22.50;;;;;10.78;78.73;99743.88;5075471;28;46146;-60
2021/12/26 02:25:26;;;;;;;;;32.00;27.00;;;;;10.80;78.53;99749.06;5077541;27;45446;-61
2021/12/26 02:27:52;;;;;;;;;26.50;24.50;;;;;10.83;79.42;99748.88;5054075;28;45542;-60
2021/12/26 02:30:17;;;;;;;;;12.00;12.00;;;;;10.77;78.66;99738.66;5075201;28;45730;-61
2021/12/26 02:32:49;;;;;;;;;29.25;25.75;;;;;10.82;78.46;99744.53;5077913;28;46592;-59
2021/12/26 02:35:17;;;;;;;;;30.50;25.00;;;;;10.87;79.02;99737.06;5077706;28;45429;-62
2021/12/26 02:37:42;;;;;;;;;32.00;25.25;;;;;10.83;79.01;99740.91;5078150;28;45819;-60
2021/12/26 02:40:08;;;;;;;;;27.50;25.25;;;;;10.88;78.57;99744.06;5078088;28;45502;-61
2021/12/26 02:42:34;;;;;;;;;29.25;24.50;;;;;10.85;78.83;99737.16;5077963;28;47569;-60
2021/12/26 02:45:00;;;;;;;;;23.00;23.00;;;;;10.86;79.28;99732.69;5057691;28;45434;-58
2021/12/26 02:47:37;;;;;;;;;19.50;19.50;;;;;10.84;78.94;99735.47;5077388;28;45373;-58
2021/12/26 02:50:08;;;;;;;;;26.00;24.25;;;;;10.83;79.58;99746.22;5075742;28;45211;-57
2021/12/26 02:52:33;;;;;;;;;22.75;22.50;;;;;10.79;79.25;99729.59;5077706;28;45453;-59
2021/12/26 02:55:00;;;;;;;;;27.50;22.50;;;;;10.79;79.47;99726.94;5077420;28;45850;-59
2021/12/26 02:57:27;;;;;;;;;32.50;25.50;;;;;10.78;79.09;99729.72;5057220;28;45438;-61
2021/12/26 02:59:53;;;;;;;;;25.75;23.00;;;;;10.77;79.45;99738.66;5077590;28;45603;-61
2021/12/26 03:02:19;;;;;;;;;24.25;22.00;;;;;10.78;78.74;99727.91;5076231;28;45522;-59
2021/12/26 03:04:44;;;;;;;;;26.75;24.25;;;;;10.83;79.39;99731.13;5077353;28;45427;-60
2021/12/26 03:07:10;;;;;;;;;24.75;22.50;;;;;10.80;79.17;99719.81;5077300;28;45485;-60
2021/12/26 03:09:45;;;;;;;;;28.75;21.75;;;;;10.79;79.16;99716.31;5077585;28;45500;-59
2021/12/26 03:12:11;;;;;;;;;26.50;22.25;;;;;10.79;79.21;99724.28;5076949;28;45362;-60
2021/12/26 03:14:38;;;;;;;;;26.25;21.00;;;;;10.77;79.25;99720.88;5077240;28;45342;-58
2021/12/26 03:17:04;;;;;;;;;29.00;22.25;;;;;10.78;79.32;99727.91;5077098;28;45342;-58
2021/12/26 03:19:36;;;;;;;;;18.00;16.75;;;;;10.71;79.32;99731.13;5077195;28;45229;-58
2021/12/26 03:22:03;;;;;;;;;20.00;20.00;;;;;10.71;79.59;99725.81;5072534;28;46653;-59
2021/12/26 03:24:29;;;;;;;;;23.25;22.75;;;;;10.72;79.51;99728.34;5076838;28;45261;-60
2021/12/26 03:26:59;;;;;;;;;24.00;20.75;;;;;10.73;79.48;99718.56;5076792;28;45875;-61
2021/12/26 03:29:25;;;;;;;;;22.50;21.50;;;;;10.74;79.55;99730.91;5057231;28;45546;-59
2021/12/26 03:31:50;;;;;;;;;22.25;19.75;;;;;10.70;79.78;99724.13;5076669;28;46638;-59
2021/12/26 03:34:16;;;;;;;;;23.50;22.00;;;;;10.68;79.45;99726.88;5076736;28;45350;-61
2021/12/26 03:36:42;;;;;;;;;25.75;23.00;;;;;10.64;79.38;99720.91;5076972;28;45267;-60
2021/12/26 03:39:08;;;;;;;;;21.75;21.00;;;;;10.70;79.57;99730.28;5077156;28;45593;-60
2021/12/26 03:41:33;;;;;;;;;27.50;22.00;;;;;10.65;79.18;99721.75;5075516;28;46047;-58
2021/12/26 03:43:59;;;;;;;;;25.00;23.25;;;;;10.65;80.27;99721.75;5074218;28;45477;-61
2021/12/26 03:46:25;;;;;;;;;26.75;19.00;;;;;10.68;79.66;99728.66;5076697;28;45427;-60
2021/12/26 03:48:50;;;;;;;;;22.25;21.75;;;;;10.69;79.30;99727.72;5076560;28;45881;-60
2021/12/26 03:51:15;;;;;;;;;26.25;21.25;;;;;10.70;80.14;99729.44;5076399;28;46168;-62
2021/12/26 03:53:41;;;;;;;;;29.00;20.75;;;;;10.66;79.98;99718.13;5076508;28;45426;-58
2021/12/26 03:56:06;;;;;;;;;26.50;22.25;;;;;10.69;79.29;99717.09;5077077;28;45434;-59
2021/12/26 03:58:32;;;;;;;;;22.00;20.25;;;;;10.69;79.80;99709.97;5076717;28;45378;-60
2021/12/26 04:00:57;;;;;;;;;25.50;15.75;;;;;10.62;79.53;99701.56;5057795;28;48600;-60
2021/12/26 04:03:24;;;;;;;;;27.50;23.50;;;;;10.64;79.74;99706.75;5074154;28;46393;-62
2021/12/26 04:05:49;;;;;;;;;22.25;21.25;;;;;10.67;79.68;99713.66;5076241;28;45473;-61
2021/12/26 04:08:15;;;;;;;;;25.00;22.00;;;;;10.62;79.48;99714.84;5076331;28;45489;-60
2021/12/26 04:10:40;;;;;;;;;26.50;24.00;;;;;10.68;79.37;99716.25;5076392;28;46115;-61
2021/12/26 04:13:06;;;;;;;;;16.50;16.50;;;;;10.67;79.48;99722.50;5076033;28;45454;-61
2021/12/26 04:15:32;;;;;;;;;29.00;22.00;;;;;10.64;79.08;99715.59;5076274;28;45501;-60
2021/12/26 04:17:58;;;;;;;;;31.25;28.00;;;;;10.61;79.96;99712.31;5076213;28;45473;-59
2021/12/26 04:20:29;;;;;;;;;25.25;18.50;;;;;10.61;79.52;99699.84;5075851;28;45955;-59
2021/12/26 04:22:55;;;;;;;;;26.00;24.00;;;;;10.59;79.51;99712.41;5076016;28;45332;-60
2021/12/26 04:25:21;;;;;;;;;32.00;22.00;;;;;10.57;79.40;99695.72;5074574;28;45482;-59
2021/12/26 04:27:47;;;;;;;;;26.75;21.75;;;;;10.62;79.34;99700.69;5076003;28;45428;-58
2021/12/26 04:30:14;;;;;;;;;23.25;18.50;;;;;10.63;79.54;99699.75;5075636;28;46076;-60
2021/12/26 04:32:40;;;;;;;;;21.25;21.25;;;;;10.63;79.54;99691.75;5073478;28;45329;-58
2021/12/26 04:35:07;;;;;;;;;22.50;22.00;;;;;10.66;79.32;99702.19;5075938;28;45216;-59
2021/12/26 04:37:34;;;;;;;;;29.25;22.25;;;;;10.68;79.06;99691.44;5076179;28;45214;-58
2021/12/26 04:40:00;;;;;;;;;26.00;26.00;;;;;10.68;79.31;99699.41;5072509;28;45538;-59
2021/12/26 04:42:25;;;;;;;;;19.75;16.00;;;;;10.70;79.22;99695.72;5075397;28;45558;-59
2021/12/26 04:44:52;;;;;;;;;26.00;21.00;;;;;10.73;79.14;99686.66;5074439;28;45911;-61
2021/12/26 04:47:18;;;;;;;;;15.75;15.75;;;;;10.74;79.44;99694.53;5075499;28;45659;-59
2021/12/26 04:49:43;;;;;;;;;24.50;21.00;;;;;10.78;79.55;99690.69;5075810;28;46099;-59
2021/12/26 04:52:09;;;;;;;;;22.75;19.75;;;;;10.79;78.99;99688.88;5056779;28;45443;-58
2021/12/26 04:54:34;;;;;;;;;27.25;25.00;;;;;10.77;78.83;99688.13;5075843;28;46091;-59
2021/12/26 04:57:00;;;;;;;;;31.50;22.50;;;;;10.76;79.10;99678.44;5057598;28;45449;-58
2021/12/26 04:59:26;;;;;;;;;24.50;24.50;;;;;10.76;79.46;99681.97;5075394;28;45439;-59
2021/12/26 05:01:53;;;;;;;;;26.75;22.00;;;;;10.77;79.30;99672.16;5075450;28;45248;-58
2021/12/26 05:04:19;;;;;;;;;24.50;22.00;;;;;10.78;79.69;99682.69;5072238;28;45391;-58
2021/12/26 05:06:46;;;;;;;;;22.75;21.75;;;;;10.79;78.87;99686.19;5074788;28;45753;-58
2021/12/26 05:09:13;;;;;;;;;20.75;19.00;;;;;10.76;79.32;99673.13;5075504;28;46079;-58
2021/12/26 05:11:39;;;;;;;;;28.50;22.25;;;;;10.67;80.08;99660.47;5072531;28;45473;-58
2021/12/26 05:14:04;;;;;;;;;30.00;26.00;;;;;10.74;80.09;99678.56;5075340;28;45509;-58
2021/12/26 05:16:30;;;;;;;;;26.50;22.00;;;;;10.69;79.55;99675.41;5075616;28;45386;-58
2021/12/26 05:18:55;;;;;;;;;22.00;20.00;;;;;10.74;80.28;99672.41;5048598;28;45440;-59
2021/12/26 05:21:21;;;;;;;;;26.50;22.50;;;;;10.70;80.21;99670.94;5054108;28;45358;-59
2021/12/26 05:23:46;;;;;;;;;22.75;21.25;;;;;10.72;81.06;99669.84;5075234;28;45416;-60
2021/12/26 05:26:11;;;;;;;;;28.75;22.50;;;;;10.74;81.01;99664.41;5074344;28;45290;-59
2021/12/26 05:28:37;;;;;;;;;25.75;25.00;;;;;10.67;80.26;99669.31;5056717;28;47905;-60
2021/12/26 05:31:02;;;;;;;;;23.00;21.75;;;;;10.61;80.21;99667.09;5075100;28;45220;-59
2021/12/26 05:33:28;;;;;;;;;22.25;22.25;;;;;10.64;80.72;99672.19;5057117;28;45447;-60
2021/12/26 05:35:53;;;;;;;;;21.00;19.50;;;;;10.60;80.88;99658.28;5075475;28;45421;-58
2021/12/26 05:38:19;;;;;;;;;21.25;21.25;;;;;10.59;80.58;99661.91;5072149;28;46168;-60
2021/12/26 05:40:44;;;;;;;;;28.75;21.50;;;;;10.57;81.20;99658.50;5075241;28;45445;-58
2021/12/26 05:43:10;;;;;;;;;17.50;16.25;;;;;10.59;80.54;99661.91;5074905;28;45500;-58
2021/12/26 05:45:35;;;;;;;;;21.50;20.00;;;;;10.57;81.37;99655.84;5075248;28;45628;-60
2021/12/26 05:48:00;;;;;;;;;19.75;19.75;;;;;10.59;81.11;99653.06;5073644;27;45556;-60
2021/12/26 05:50:26;;;;;;;;;19.50;19.50;;;;;10.63;80.52;99658.06;5074805;28;45628;-59
2021/12/26 05:52:52;;;;;;;;;25.50;22.50;;;;;10.64;80.34;99657.09;5074811;28;45600;-60
2021/12/26 05:55:18;;;;;;;;;29.25;25.25;;;;;10.67;80.02;99668.47;5074959;28;45492;-59
2021/12/26 05:57:43;;;;;;;;;23.75;21.00;;;;;10.62;80.67;99664.31;5054684;28;45521;-59
2021/12/26 06:00:12;;;;;;;;;21.00;20.25;;;;;10.63;80.27;99673.16;5074735;28;45510;-61
2021/12/26 06:02:37;;;;;;;;;24.00;22.00;;;;;10.66;80.55;99672.09;5074766;28;45391;-61
2021/12/26 06:05:03;;;;;;;;;29.25;18.00;;;;;10.67;80.90;99668.47;5077710;28;45574;-60
2021/12/26 06:07:29;;;;;;;;;17.00;17.00;;;;;10.68;79.50;99668.38;5076845;28;45244;-61
2021/12/26 06:09:54;;;;;;;;;22.25;16.25;;;;;10.67;80.39;99663.16;5077725;28;45447;-59
2021/12/26 06:12:20;;;;;;;;;22.25;20.25;;;;;10.71;80.67;99667.31;5059999;28;45279;-60
2021/12/26 06:14:45;;;;;;;;;20.75;18.25;;;;;10.72;80.32;99669.00;5078673;28;45318;-59
2021/12/26 06:17:11;;;;;;;;;20.00;19.25;;;;;10.72;79.73;99653.91;5078003;28;46077;-59
2021/12/26 06:19:36;;;;;;;;;20.75;17.25;;;;;10.72;79.31;99663.69;5059843;28;46073;-58
2021/12/26 06:22:03;;;;;;;;;20.00;17.00;;;;;10.68;80.25;99663.06;5059933;28;45449;-60
2021/12/26 06:24:29;;;;;;;;;19.25;19.25;;;;;10.66;79.82;99662.28;5078221;28;45593;-60
2021/12/26 06:26:55;;;;;;;;;15.50;15.50;;;;;10.69;80.15;99669.22;5077742;28;46168;-59
2021/12/26 06:29:20;;;;;;;;;16.50;15.50;;;;;10.72;80.03;99664.53;5076440;28;45409;-58
2021/12/26 06:31:45;;;;;;;;;19.50;17.00;;;;;10.74;80.36;99667.06;5078150;28;45320;-60
2021/12/26 06:34:11;;;;;;;;;16.00;16.00;;;;;10.74;79.79;99667.06;5077910;28;45641;-60
2021/12/26 06:36:36;;;;;;;;;17.00;14.75;;;;;10.75;80.31;99658.13;5058975;28;45585;-62
2021/12/26 06:39:02;;;;;;;;;17.25;16.00;;;;;10.74;79.73;99661.75;5077846;28;45433;-58
2021/12/26 06:41:28;;;;;;;;;15.75;13.50;;;;;10.76;79.73;99659.84;5077870;28;45316;-59
2021/12/26 06:43:53;;;;;;;;;18.50;18.50;;;;;10.78;80.04;99658.75;5059421;28;45427;-61
2021/12/26 06:46:19;;;;;;;;;18.25;17.00;;;;;10.81;79.83;99655.06;5077933;28;45359;-59
2021/12/26 06:48:44;;;;;;;;;17.00;15.00;;;;;10.80;79.89;99651.50;5076830;27;45671;-58
2021/12/26 06:51:10;;;;;;;;;27.75;19.25;;;;;10.80;80.17;99656.84;5077560;28;45413;-61
2021/12/26 06:53:36;;;;;;;;;16.75;14.50;;;;;10.81;80.14;99657.72;5077781;28;45649;-58
2021/12/26 06:56:02;;;;;;;;;18.50;13.00;;;;;10.80;80.17;99656.00;5077176;28;45536;-59
2021/12/26 06:58:27;;;;;;;;;18.25;18.25;;;;;10.79;80.05;99660.47;5077357;28;45543;-59
2021/12/26 07:00:53;;;;;;;;;18.00;16.50;;;;;10.82;79.80;99662.06;5077342;28;45556;-60
2021/12/26 07:03:18;;;;;;;;;18.50;16.25;;;;;10.80;80.12;99646.19;5077788;28;45468;-60
2021/12/26 07:05:43;;;;;;;;;13.67;13.00;;;;;10.85;79.53;99659.19;5077217;28;45508;-58
2021/12/26 07:08:09;;;;;;;;;16.00;13.67;;;;;10.84;79.63;99660.16;5077135;28;45398;-61
2021/12/26 07:10:35;;;;;;;;;16.75;15.00;;;;;10.86;80.09;99660.88;5074887;28;45612;-59
2021/12/26 07:13:00;;;;;;;;;13.75;13.75;;;;;10.85;79.71;99648.53;5077468;28;45469;-60
2021/12/26 07:15:26;;;;;;;;;16.00;13.25;;;;;10.87;79.98;99652.78;5075940;28;45903;-61
2021/12/26 07:17:51;;;;;;;;;21.50;16.00;;;;;10.87;79.38;99657.25;5077184;28;45256;-60
2021/12/26 07:20:18;;;;;;;;;14.75;14.75;;;;;10.88;79.54;99662.47;5077401;28;45680;-60
2021/12/26 07:22:45;;;;;;;;;13.25;11.00;;;;;10.87;79.55;99650.13;5077531;28;45665;-61
2021/12/26 07:25:12;;;;;;;;;17.75;17.75;;;;;10.92;79.19;99657.75;5058480;28;47583;-64
2021/12/26 07:27:38;;;;;;;;;22.25;17.75;;;;;10.96;79.23;99667.25;5076580;28;45470;-62
2021/12/26 07:30:04;;;;;;;;;14.50;13.00;;;;;11.01;79.87;99670.41;5076496;28;45416;-61
2021/12/26 07:32:30;;;;;;;;;13.00;11.25;;;;;11.02;79.06;99672.09;5057237;28;45625;-61
2021/12/26 07:34:57;;;;;;;;;16.75;16.75;;;;;11.03;79.08;99675.63;5076626;28;45946;-58
2021/12/26 07:37:23;;;;;;;;;21.50;16.25;;;;;11.03;79.75;99679.13;5058473;28;46067;-59
2021/12/26 07:39:49;;;;;;;;;12.75;12.50;;;;;11.04;79.22;99680.81;5077084;28;45165;-59
2021/12/26 07:42:14;;;;;;;;;18.67;17.00;;;;;11.03;79.68;99679.13;5076914;28;45216;-60
2021/12/26 07:44:40;;;;;;;;;16.33;16.33;;;;;11.03;79.45;99678.28;5076308;28;46400;-60
2021/12/26 07:47:05;;;;;;;;;14.50;13.00;;;;;11.05;79.50;99663.91;5076305;28;45515;-60
2021/12/26 07:49:31;;;;;;;;;15.00;12.67;;;;;11.05;79.85;99661.22;5076678;28;45516;-60
2021/12/26 07:51:57;;;;;;;;;25.50;17.75;;;;;11.03;80.19;99657.84;5076958;27;45561;-58
2021/12/26 07:54:24;;;;;;;;;17.50;14.25;;;;;11.02;80.14;99663.28;5076594;28;46357;-62
2021/12/26 07:56:51;;;;;;;;;17.33;14.33;;;;;10.98;80.23;99659.16;5076572;28;45570;-61
2021/12/26 07:59:17;;;;;;;;;22.67;16.67;;;;;11.03;80.31;99676.47;5076244;28;45239;-59
2021/12/26 08:01:42;;;;;;;;;19.75;16.00;;;;;11.04;79.69;99669.34;5076595;28;45232;-61
2021/12/26 08:04:09;;;;;;;;;12.75;12.75;;;;;11.06;79.91;99673.56;5076330;28;45221;-59
2021/12/26 08:06:35;;;;;;;;;13.33;12.00;;;;;11.10;80.69;99680.41;5076078;28;45251;-59
2021/12/26 08:09:00;;;;;;;;;13.33;12.33;;;;;11.14;80.29;99681.88;5052577;28;45363;-59
2021/12/26 08:11:26;;;;;;;;;16.33;14.33;;;;;11.15;80.10;99682.72;5075165;28;45566;-59
2021/12/26 08:13:51;;;;;;;;;16.00;15.75;;;;;11.15;79.86;99685.38;5075035;28;45963;-59
2021/12/26 08:16:16;;;;;;;;;18.00;15.25;;;;;11.12;80.24;99678.47;5075993;28;45266;-62
2021/12/26 08:18:42;;;;;;;;;14.25;14.25;;;;;11.11;80.05;99687.41;5076065;28;45491;-58
2021/12/26 08:21:08;;;;;;;;;18.75;16.50;;;;;11.14;80.28;99681.00;5076397;28;45558;-58
2021/12/26 08:23:34;;;;;;;;;18.25;16.75;;;;;11.17;80.46;99686.97;5075909;28;45452;-62
2021/12/26 08:26:01;;;;;;;;;13.25;10.75;;;;;11.17;80.32;99686.97;5075768;28;45533;-63
2021/12/26 08:28:27;;;;;;;;;16.25;15.00;;;;;11.22;80.07;99690.16;5056119;28;45376;-58
2021/12/26 08:30:53;;;;;;;;;16.00;16.00;;;;;11.19;79.96;99685.03;5076539;28;45453;-57
2021/12/26 08:33:19;;;;;;;;;21.67;19.00;;;;;11.21;79.81;99695.59;5055677;28;47748;-61
2021/12/26 08:35:46;;;;;;;;;22.75;17.25;;;;;11.20;79.96;99686.75;5074374;28;45483;-60
2021/12/26 08:38:16;;;;;;;;;19.75;18.25;;;;;11.21;80.17;99693.78;5075788;28;45611;-62
2021/12/26 08:40:42;;;;;;;;;15.50;15.50;;;;;11.19;80.28;99685.03;5073322;28;45295;-59
2021/12/26 08:43:08;;;;;;;;;23.00;17.67;;;;;11.28;80.16;99695.97;5075605;28;45343;-59
2021/12/26 08:45:33;;;;;;;;;19.33;17.67;;;;;11.26;80.13;99696.09;5057534;28;45440;-61
2021/12/26 08:48:00;;;;;;;;;15.67;15.00;;;;;11.26;80.18;99701.41;5075621;28;45882;-61
2021/12/26 08:50:28;;;;;;;;;23.75;21.50;;;;;11.27;80.35;99707.59;5076153;28;45707;-59
2021/12/26 08:52:54;;;;;;;;;11.50;10.00;;;;;11.25;80.60;99710.38;5075275;27;47172;-59
2021/12/26 08:55:21;;;;;;;;;14.50;12.75;;;;;11.29;80.43;99716.31;5074897;28;45440;-59
2021/12/26 08:57:47;;;;;;;;;22.50;18.00;;;;;11.22;80.03;99711.44;5075290;28;45379;-60
2021/12/26 09:00:15;;;;;;;;;19.67;17.67;;;;;11.20;80.35;99710.72;5074099;28;45340;-58
2021/12/26 09:02:40;;;;;;;;;20.00;16.00;;;;;11.26;80.69;99720.03;5056107;28;47972;-61
2021/12/26 09:05:06;;;;;;;;;18.00;14.33;;;;;11.31;80.18;99722.38;5056619;28;45280;-60
2021/12/26 09:07:32;;;;;;;;;19.75;17.00;;;;;11.33;79.96;99712.44;5075335;28;45356;-58
2021/12/26 09:09:58;;;;;;;;;21.67;17.67;;;;;11.35;80.54;99718.53;5075417;28;45382;-60
2021/12/26 09:12:23;;;;;;;;;21.33;16.67;;;;;11.35;80.40;99716.72;5075177;28;45375;-59
2021/12/26 09:14:49;;;;;;;;;16.67;16.67;;;;;11.38;79.86;99711.16;5054462;28;45572;-62
2021/12/26 09:17:15;;;;;;;;;15.67;13.33;;;;;11.42;80.17;99723.28;5074302;28;45452;-58
2021/12/26 09:19:40;;;;;;;;;22.75;18.50;;;;;11.43;80.00;99724.97;5075216;28;45330;-60
2021/12/26 09:22:08;;;;;;;;;17.00;15.33;;;;;11.40;79.92;99729.69;5054059;28;45452;-59
2021/12/26 09:24:34;;;;;;;;;16.00;14.00;;;;;11.35;80.24;99731.84;5075092;28;45378;-59
2021/12/26 09:27:00;;;;;;;;;22.50;13.75;;;;;11.39;80.27;99739.50;5075884;28;45447;-60
2021/12/26 09:29:25;;;;;;;;;17.50;12.75;;;;;11.43;80.06;99732.13;5076268;28;45656;-61
2021/12/26 09:31:52;;;;;;;;;13.00;12.33;;;;;11.49;79.58;99739.66;5075746;28;45812;-61
2021/12/26 09:34:17;;;;;;;;;18.75;16.25;;;;;11.50;79.57;99736.03;5075564;28;45346;-59
2021/12/26 09:36:44;;;;;;;;;17.00;15.67;;;;;11.55;80.10;99735.69;5079143;27;45377;-59
2021/12/26 09:39:10;;;;;;;;;17.00;15.00;;;;;11.53;79.87;99738.47;5097675;27;45565;-61
2021/12/26 09:41:37;;;;;;;;;10.00;9.00;;;;;11.60;79.60;99736.22;5099451;27;45473;-60
2021/12/26 09:44:03;;;;;;;;;13.33;11.67;;;;;11.64;79.65;99732.38;5083272;27;45290;-61
2021/12/26 09:46:31;;;;;;;;;12.00;11.33;;;;;11.66;79.38;99741.94;5079119;27;45223;-58
2021/12/26 09:48:57;;;;;;;;;13.67;13.67;;;;;11.65;78.97;99734.91;5061185;27;45395;-61
2021/12/26 09:51:22;;;;;;;;;17.00;16.67;;;;;11.68;78.63;99740.00;5079082;27;46236;-61
2021/12/26 09:53:48;;;;;;;;;18.67;14.00;;;;;11.70;78.84;99737.22;5060759;28;45291;-61
2021/12/26 09:56:14;;;;;;;;;14.33;12.67;;;;;11.67;78.82;99727.66;5042950;28;45327;-59
2021/12/26 09:59:07;;;;;;;;;16.67;13.33;;;;;11.72;79.16;99737.97;5058644;28;45398;-61
2021/12/26 10:01:39;;;;;;;;;14.67;14.67;;;;;11.72;78.56;99738.84;5056589;28;46087;-61
2021/12/26 10:04:16;;;;;;;;;15.33;15.33;;;;;11.73;78.55;99745.84;5058569;28;45300;-58
2021/12/26 10:06:42;;;;;;;;;17.00;14.25;;;;;11.73;78.91;99743.19;5058631;28;45454;-59
2021/12/26 10:09:10;;;;;;;;;14.00;13.00;;;;;11.74;79.16;99742.22;5058896;28;45592;-58
2021/12/26 10:11:42;;;;;;;;;12.33;11.33;;;;;11.71;78.76;99734.44;5058395;28;45434;-59
2021/12/26 10:14:14;;;;;;;;;16.67;12.00;;;;;11.71;78.76;99739.75;5058384;28;45398;-60
2021/12/26 10:16:48;;;;;;;;;18.67;14.00;;;;;11.72;78.92;99744.16;5058431;28;45284;-59
2021/12/26 10:19:14;;;;;;;;;17.00;13.00;;;;;11.69;78.65;99727.53;5078579;28;45265;-59
2021/12/26 10:21:47;;;;;;;;;13.00;12.33;;;;;11.75;79.00;99727.94;5060246;28;45358;-62
2021/12/26 10:24:15;;;;;;;;;16.00;14.00;;;;;11.81;78.98;99724.84;5078468;28;45282;-59
2021/12/26 10:26:51;;;;;;;;;13.33;11.33;;;;;11.84;78.54;99720.25;5078641;28;45378;-60
2021/12/26 10:29:33;;;;;;;;;17.00;9.67;;;;;11.87;78.37;99718.22;5061508;28;45449;-59
2021/12/26 10:32:11;;;;;;;;;12.67;12.67;;;;;11.89;78.07;99704.78;5078846;28;45591;-59
2021/12/26 10:34:58;;;;;;;;;9.00;9.00;;;;;11.87;78.44;99714.69;5078415;28;45556;-60
2021/12/26 10:37:24;;;;;;;;;13.00;11.00;;;;;11.90;78.41;99711.81;5077025;28;45406;-59
2021/12/26 10:39:55;;;;;;;;;16.00;13.67;;;;;11.92;78.37;99713.38;5057917;28;45366;-62
2021/12/26 10:42:24;;;;;;;;;12.00;9.00;;;;;11.90;78.50;99706.47;5059904;28;45690;-60
2021/12/26 10:44:54;;;;;;;;;13.00;11.33;;;;;11.77;78.49;99691.38;5076817;28;45487;-59
2021/12/26 10:47:32;;;;;;;;;14.67;13.00;;;;;11.89;78.62;99705.63;5078224;28;45291;-59
2021/12/26 10:49:59;;;;;;;;;14.00;12.00;;;;;11.85;78.60;99706.84;5077402;28;45819;-59
2021/12/26 10:52:31;;;;;;;;;11.67;11.67;;;;;11.84;78.67;99709.59;5078063;28;45588;-59
2021/12/26 10:55:02;;;;;;;;;13.00;8.33;;;;;11.85;79.09;99705.94;5077820;28;45319;-60
2021/12/26 10:57:30;;;;;;;;;17.67;12.00;;;;;11.88;78.91;99703.94;5078427;28;45319;-61
2021/12/26 11:00:08;;;;;;;;;9.33;9.33;;;;;11.91;79.29;99701.03;5060715;28;45570;-60
2021/12/26 11:02:35;;;;;;;;;12.00;12.00;;;;;11.86;79.56;99699.69;5057697;28;45419;-59
2021/12/26 11:05:10;;;;;;;;;11.67;10.33;;;;;11.88;79.88;99700.41;5039847;28;45442;-61
2021/12/26 11:07:55;;;;;;;;;13.67;12.00;;;;;11.88;80.12;99708.41;5057588;28;45435;-62
2021/12/26 11:10:34;;;;;;;;;11.33;9.00;;;;;11.82;80.14;99715.88;5057735;28;45331;-63
2021/12/26 11:13:02;;;;;;;;;14.67;13.67;;;;;11.74;80.95;99704.94;5057865;28;45433;-62
2021/12/26 11:15:34;;;;;;;;;6.00;3.33;;;;;11.70;81.79;99706.09;5057525;28;45359;-63